Terminal Aerodrome Forecast
Issued by NWS

Home | Current Version | Previous Version | Text Only | Print | Product List | Glossary On
Versions: 1 2 3 4 5 6 7 8 9 10 11 12 13 14
000
FTUS46 KSEW 271700
TAFCLM
TAF
KCLM 271720Z 2718/2818 25003KT 6SM -RA BR SCT015 OVC050
     FM271900 28008KT P6SM -RA OVC015
     FM272200 28013G22KT P6SM -RA OVC010
     FM281100 25009KT P6SM OVC020=

USA.gov is the U.S. government's official web portal to all federal, state and local government web resources and services.